sensor_id;sensor_type;location;lat;lon;timestamp;pressure;altitude;pressure_sealevel;temperature;humidity
58243;BME280;50118;53.232;8.252;2022-08-01T00:02:03;101282.06;;;17.21;100.00
58243;BME280;50118;53.232;8.252;2022-08-01T00:04:29;101275.72;;;17.13;100.00
58243;BME280;50118;53.232;8.252;2022-08-01T00:06:54;101278.41;;;17.13;100.00
58243;BME280;50118;53.232;8.252;2022-08-01T00:09:20;101272.94;;;17.30;100.00
58243;BME280;50118;53.232;8.252;2022-08-01T00:11:45;101279.53;;;17.19;100.00
58243;BME280;50118;53.232;8.252;2022-08-01T00:14:11;101276.53;;;17.14;100.00
58243;BME280;50118;53.232;8.252;2022-08-01T00:16:36;101285.13;;;17.09;100.00
58243;BME280;50118;53.232;8.252;2022-08-01T00:19:03;101286.16;;;17.08;100.00
58243;BME280;50118;53.232;8.252;2022-08-01T00:21:28;101282.28;;;17.11;100.00
58243;BME280;50118;53.232;8.252;2022-08-01T00:23:54;101286.47;;;17.13;100.00
58243;BME280;50118;53.232;8.252;2022-08-01T00:26:20;101282.28;;;17.11;100.00
58243;BME280;50118;53.232;8.252;2022-08-01T00:28:45;101281.09;;;17.13;100.00
58243;BME280;50118;53.232;8.252;2022-08-01T00:31:11;101283.78;;;17.13;100.00
58243;BME280;50118;53.232;8.252;2022-08-01T00:33:37;101277.75;;;17.11;100.00
58243;BME280;50118;53.232;8.252;2022-08-01T00:36:02;101280.06;;;17.14;100.00
58243;BME280;50118;53.232;8.252;2022-08-01T00:38:28;101285.34;;;17.08;100.00
58243;BME280;50118;53.232;8.252;2022-08-01T00:40:53;101282.81;;;17.06;100.00
58243;BME280;50118;53.232;8.252;2022-08-01T00:43:19;101293.19;;;17.17;100.00
58243;BME280;50118;53.232;8.252;2022-08-01T00:45:45;101294.56;;;17.13;100.00
58243;BME280;50118;53.232;8.252;2022-08-01T00:48:10;101289.00;;;17.15;100.00
58243;BME280;50118;53.232;8.252;2022-08-01T00:53:59;101300.75;;;17.14;100.00
58243;BME280;50118;53.232;8.252;2022-08-01T00:56:26;101303.47;;;17.14;100.00
58243;BME280;50118;53.232;8.252;2022-08-01T00:59:31;101308.00;;;17.13;100.00
58243;BME280;50118;53.232;8.252;2022-08-01T01:01:56;101297.25;;;17.13;100.00
58243;BME280;50118;53.232;8.252;2022-08-01T01:04:22;101302.63;;;17.13;100.00
58243;BME280;50118;53.232;8.252;2022-08-01T01:13:34;101309.41;;;17.01;100.00
58243;BME280;50118;53.232;8.252;2022-08-01T01:16:17;101308.06;;;16.97;100.00
58243;BME280;50118;53.232;8.252;2022-08-01T01:18:49;101307.56;;;16.93;100.00
58243;BME280;50118;53.232;8.252;2022-08-01T01:24:07;101309.75;;;16.98;100.00
58243;BME280;50118;53.232;8.252;2022-08-01T01:33:39;101318.00;;;16.96;100.00
58243;BME280;50118;53.232;8.252;2022-08-01T01:36:30;101314.97;;;16.91;100.00
58243;BME280;50118;53.232;8.252;2022-08-01T01:38:58;101314.50;;;16.88;100.00
58243;BME280;50118;53.232;8.252;2022-08-01T01:41:26;101314.50;;;16.88;100.00
58243;BME280;50118;53.232;8.252;2022-08-01T01:44:32;101326.09;;;16.88;100.00
58243;BME280;50118;53.232;8.252;2022-08-01T01:47:02;101327.59;;;16.83;100.00
58243;BME280;50118;53.232;8.252;2022-08-01T01:49:29;101332.97;;;16.83;100.00
58243;BME280;50118;53.232;8.252;2022-08-01T01:51:57;101340.00;;;16.84;100.00
58243;BME280;50118;53.232;8.252;2022-08-01T01:55:04;101334.13;;;16.80;100.00
58243;BME280;50118;53.232;8.252;2022-08-01T01:57:50;101330.63;;;16.88;100.00
58243;BME280;50118;53.232;8.252;2022-08-01T02:00:22;101339.34;;;16.81;100.00
58243;BME280;50118;53.232;8.252;2022-08-01T02:02:48;101338.69;;;16.79;100.00
58243;BME280;50118;53.232;8.252;2022-08-01T02:05:55;101341.06;;;16.74;100.00
58243;BME280;50118;53.232;8.252;2022-08-01T02:08:23;101345.63;;;16.66;100.00
58243;BME280;50118;53.232;8.252;2022-08-01T02:10:51;101334.69;;;16.67;100.00
58243;BME280;50118;53.232;8.252;2022-08-01T02:13:38;101333.00;;;16.66;100.00
58243;BME280;50118;53.232;8.252;2022-08-01T02:18:50;101334.69;;;16.67;100.00
58243;BME280;50118;53.232;8.252;2022-08-01T02:27:06;101334.19;;;16.47;100.00
58243;BME280;50118;53.232;8.252;2022-08-01T02:32:51;101339.09;;;16.43;100.00
58243;BME280;50118;53.232;8.252;2022-08-01T02:35:24;101344.13;;;16.38;100.00
58243;BME280;50118;53.232;8.252;2022-08-01T02:38:05;101347.47;;;16.32;100.00
58243;BME280;50118;53.232;8.252;2022-08-01T02:40:38;101345.97;;;16.30;100.00
58243;BME280;50118;53.232;8.252;2022-08-01T02:43:05;101347.16;;;16.35;100.00
58243;BME280;50118;53.232;8.252;2022-08-01T02:45:31;101340.78;;;16.28;100.00
58243;BME280;50118;53.232;8.252;2022-08-01T02:48:05;101344.78;;;16.24;100.00
58243;BME280;50118;53.232;8.252;2022-08-01T02:50:33;101351.03;;;16.24;100.00
58243;BME280;50118;53.232;8.252;2022-08-01T02:53:21;101350.31;;;16.22;100.00
58243;BME280;50118;53.232;8.252;2022-08-01T02:55:48;101351.84;;;16.25;100.00
58243;BME280;50118;53.232;8.252;2022-08-01T02:58:19;101354.88;;;16.22;100.00
58243;BME280;50118;53.232;8.252;2022-08-01T03:00:49;101351.19;;;16.23;100.00
58243;BME280;50118;53.232;8.252;2022-08-01T03:03:40;101363.44;;;16.25;100.00
58243;BME280;50118;53.232;8.252;2022-08-01T03:06:16;101365.63;;;16.30;100.00
58243;BME280;50118;53.232;8.252;2022-08-01T03:08:51;101366.97;;;16.26;100.00
58243;BME280;50118;53.232;8.252;2022-08-01T03:11:21;101372.34;;;16.26;100.00
58243;BME280;50118;53.232;8.252;2022-08-01T03:14:00;101374.53;;;16.31;100.00
58243;BME280;50118;53.232;8.252;2022-08-01T03:16:28;101377.72;;;16.26;100.00
58243;BME280;50118;53.232;8.252;2022-08-01T03:18:54;101380.94;;;16.30;100.00
58243;BME280;50118;53.232;8.252;2022-08-01T03:21:23;101387.13;;;16.30;100.00
58243;BME280;50118;53.232;8.252;2022-08-01T03:23:50;101388.28;;;16.28;100.00
58243;BME280;50118;53.232;8.252;2022-08-01T03:26:26;101382.41;;;16.24;100.00
58243;BME280;50118;53.232;8.252;2022-08-01T03:28:55;101391.81;;;16.20;100.00
58243;BME280;50118;53.232;8.252;2022-08-01T03:35:00;101403.56;;;16.19;100.00
58243;BME280;50118;53.232;8.252;2022-08-01T03:37:29;101402.41;;;16.13;100.00
58243;BME280;50118;53.232;8.252;2022-08-01T03:40:03;101403.59;;;16.11;100.00
58243;BME280;50118;53.232;8.252;2022-08-01T03:42:41;101413.13;;;16.05;100.00
58243;BME280;50118;53.232;8.252;2022-08-01T03:48:28;101413.63;;;16.09;100.00
58243;BME280;50118;53.232;8.252;2022-08-01T03:54:01;101403.72;;;16.01;100.00
58243;BME280;50118;53.232;8.252;2022-08-01T03:57:48;101401.88;;;16.01;100.00
58243;BME280;50118;53.232;8.252;2022-08-01T04:00:21;101408.91;;;15.94;100.00
58243;BME280;50118;53.232;8.252;2022-08-01T04:02:55;101421.31;;;15.95;100.00
58243;BME280;50118;53.232;8.252;2022-08-01T04:05:26;101424.00;;;15.87;100.00
58243;BME280;50118;53.232;8.252;2022-08-01T04:07:52;101428.69;;;15.77;100.00
58243;BME280;50118;53.232;8.252;2022-08-01T04:10:59;101427.00;;;15.76;100.00
58243;BME280;50118;53.232;8.252;2022-08-01T04:13:48;101432.38;;;15.76;100.00
58243;BME280;50118;53.232;8.252;2022-08-01T04:16:13;101433.31;;;15.66;100.00
58243;BME280;50118;53.232;8.252;2022-08-01T04:18:44;101444.53;;;15.62;100.00
58243;BME280;50118;53.232;8.252;2022-08-01T04:21:10;101436.16;;;15.65;100.00
58243;BME280;50118;53.232;8.252;2022-08-01T04:24:16;101446.03;;;15.64;100.00
58243;BME280;50118;53.232;8.252;2022-08-01T04:26:56;101448.56;;;15.66;100.00
58243;BME280;50118;53.232;8.252;2022-08-01T04:29:26;101446.03;;;15.64;100.00
58243;BME280;50118;53.232;8.252;2022-08-01T04:31:54;101448.56;;;15.66;100.00
58243;BME280;50118;53.232;8.252;2022-08-01T04:34:23;101446.03;;;15.64;100.00
58243;BME280;50118;53.232;8.252;2022-08-01T04:36:52;101451.94;;;15.68;100.00
58243;BME280;50118;53.232;8.252;2022-08-01T04:39:20;101451.41;;;15.64;100.00
58243;BME280;50118;53.232;8.252;2022-08-01T04:41:49;101458.13;;;15.60;100.00
58243;BME280;50118;53.232;8.252;2022-08-01T04:44:16;101454.09;;;15.56;100.00
58243;BME280;50118;53.232;8.252;2022-08-01T04:56:50;101464.81;;;15.56;100.00
58243;BME280;50118;53.232;8.252;2022-08-01T04:59:27;101466.44;;;15.49;100.00
58243;BME280;50118;53.232;8.252;2022-08-01T05:05:54;101477.94;;;15.33;100.00
58243;BME280;50118;53.232;8.252;2022-08-01T05:08:20;101490.72;;;15.13;100.00
58243;BME280;50118;53.232;8.252;2022-08-01T05:10:45;101498.81;;;15.21;100.00
58243;BME280;50118;53.232;8.252;2022-08-01T05:13:11;101496.28;;;15.20;100.00
58243;BME280;50118;53.232;8.252;2022-08-01T05:15:39;101500.41;;;15.06;100.00
58243;BME280;50118;53.232;8.252;2022-08-01T05:18:05;101502.41;;;15.04;100.00
58243;BME280;50118;53.232;8.252;2022-08-01T05:20:42;101511.50;;;14.93;100.00
58243;BME280;50118;53.232;8.252;2022-08-01T05:23:10;101516.03;;;14.92;100.00
58243;BME280;50118;53.232;8.252;2022-08-01T05:25:37;101512.38;;;14.93;100.00
58243;BME280;50118;53.232;8.252;2022-08-01T05:28:03;101520.03;;;14.88;100.00
58243;BME280;50118;53.232;8.252;2022-08-01T05:30:29;101527.00;;;14.99;100.00
58243;BME280;50118;53.232;8.252;2022-08-01T05:32:54;101532.91;;;15.03;100.00
58243;BME280;50118;53.232;8.252;2022-08-01T05:35:20;101536.53;;;14.93;100.00
58243;BME280;50118;53.232;8.252;2022-08-01T05:37:45;101535.28;;;14.88;100.00
58243;BME280;50118;53.232;8.252;2022-08-01T05:40:11;101546.63;;;15.00;100.00
58243;BME280;50118;53.232;8.252;2022-08-01T05:42:37;101535.50;;;14.94;100.00
58243;BME280;50118;53.232;8.252;2022-08-01T05:45:02;101541.50;;;14.88;100.00
58243;BME280;50118;53.232;8.252;2022-08-01T05:47:28;101536.66;;;14.92;100.00
58243;BME280;50118;53.232;8.252;2022-08-01T05:49:53;101539.50;;;14.90;100.00
58243;BME280;50118;53.232;8.252;2022-08-01T05:55:28;101550.84;;;14.84;100.00
58243;BME280;50118;53.232;8.252;2022-08-01T05:57:54;101544.63;;;14.84;100.00
58243;BME280;50118;53.232;8.252;2022-08-01T06:00:53;101547.69;;;14.89;100.00
58243;BME280;50118;53.232;8.252;2022-08-01T06:03:22;101548.78;;;14.78;100.00
58243;BME280;50118;53.232;8.252;2022-08-01T06:05:54;101554.84;;;14.80;100.00
58243;BME280;50118;53.232;8.252;2022-08-01T06:08:19;101558.28;;;14.90;100.00
58243;BME280;50118;53.232;8.252;2022-08-01T06:11:26;101556.28;;;14.92;100.00
58243;BME280;50118;53.232;8.252;2022-08-01T06:13:51;101556.44;;;15.09;100.00
58243;BME280;50118;53.232;8.252;2022-08-01T06:16:28;101561.88;;;15.17;100.00
58243;BME280;50118;53.232;8.252;2022-08-01T06:19:23;101559.72;;;15.21;100.00
58243;BME280;50118;53.232;8.252;2022-08-01T06:21:53;101552.09;;;15.34;100.00
58243;BME280;50118;53.232;8.252;2022-08-01T06:24:31;101555.47;;;15.36;100.00
58243;BME280;50118;53.232;8.252;2022-08-01T06:27:34;101550.53;;;15.49;100.00
58243;BME280;50118;53.232;8.252;2022-08-01T06:29:59;101556.22;;;15.46;100.00
58243;BME280;50118;53.232;8.252;2022-08-01T06:35:02;101571.41;;;15.82;100.00
58243;BME280;50118;53.232;8.252;2022-08-01T06:41:16;101560.00;;;15.88;100.00
58243;BME280;50118;53.232;8.252;2022-08-01T06:43:44;101559.00;;;15.89;100.00
58243;BME280;50118;53.232;8.252;2022-08-01T06:49:33;101560.41;;;16.01;100.00
58243;BME280;50118;53.232;8.252;2022-08-01T06:52:08;101558.84;;;15.91;100.00
58243;BME280;50118;53.232;8.252;2022-08-01T06:54:40;101568.22;;;16.21;100.00
58243;BME280;50118;53.232;8.252;2022-08-01T07:03:41;101568.75;;;16.92;100.00
58243;BME280;50118;53.232;8.252;2022-08-01T07:06:09;101568.72;;;16.75;100.00
58243;BME280;50118;53.232;8.252;2022-08-01T07:08:53;101574.00;;;16.42;100.00
58243;BME280;50118;53.232;8.252;2022-08-01T07:11:27;101572.13;;;16.35;100.00
58243;BME280;50118;53.232;8.252;2022-08-01T07:14:30;101578.88;;;16.39;100.00
58243;BME280;50118;53.232;8.252;2022-08-01T07:17:45;101571.94;;;16.87;100.00
58243;BME280;50118;53.232;8.252;2022-08-01T07:24:04;101566.41;;;17.30;100.00
58243;BME280;50118;53.232;8.252;2022-08-01T07:27:08;101571.44;;;17.49;100.00
58243;BME280;50118;53.232;8.252;2022-08-01T07:29:57;101580.34;;;17.58;100.00
58243;BME280;50118;53.232;8.252;2022-08-01T07:35:15;101584.06;;;17.24;100.00
58243;BME280;50118;53.232;8.252;2022-08-01T07:37:48;101589.63;;;17.14;100.00
58243;BME280;50118;53.232;8.252;2022-08-01T07:43:46;101598.44;;;16.66;100.00
58243;BME280;50118;53.232;8.252;2022-08-01T07:46:14;101607.41;;;16.83;100.00
58243;BME280;50118;53.232;8.252;2022-08-01T07:51:19;101612.69;;;16.58;100.00
58243;BME280;50118;53.232;8.252;2022-08-01T07:53:53;101608.38;;;16.73;100.00
58243;BME280;50118;53.232;8.252;2022-08-01T07:56:19;101613.22;;;16.61;100.00
58243;BME280;50118;53.232;8.252;2022-08-01T07:58:44;101608.94;;;16.42;100.00
58243;BME280;50118;53.232;8.252;2022-08-01T08:01:12;101615.03;;;16.53;100.00
58243;BME280;50118;53.232;8.252;2022-08-01T08:03:43;101618.09;;;16.66;100.00
58243;BME280;50118;53.232;8.252;2022-08-01T08:06:12;101622.34;;;16.77;100.00
58243;BME280;50118;53.232;8.252;2022-08-01T08:09:03;101630.28;;;16.87;100.00
58243;BME280;50118;53.232;8.252;2022-08-01T08:11:28;101628.41;;;16.79;98.04
58243;BME280;50118;53.232;8.252;2022-08-01T08:13:57;101631.34;;;17.18;99.70
58243;BME280;50118;53.232;8.252;2022-08-01T08:16:23;101633.72;;;17.22;97.92
58243;BME280;50118;53.232;8.252;2022-08-01T08:21:39;101633.06;;;17.61;94.65
58243;BME280;50118;53.232;8.252;2022-08-01T08:24:25;101634.41;;;17.32;90.38
58243;BME280;50118;53.232;8.252;2022-08-01T08:26:58;101634.38;;;17.15;96.54
58243;BME280;50118;53.232;8.252;2022-08-01T08:29:25;101640.28;;;17.19;90.96
58243;BME280;50118;53.232;8.252;2022-08-01T08:31:54;101642.63;;;17.22;89.98
58243;BME280;50118;53.232;8.252;2022-08-01T08:34:26;101639.09;;;17.22;94.14
58243;BME280;50118;53.232;8.252;2022-08-01T08:36:55;101649.53;;;17.16;90.74
58243;BME280;50118;53.232;8.252;2022-08-01T08:39:22;101646.50;;;17.36;92.63
58243;BME280;50118;53.232;8.252;2022-08-01T08:42:10;101653.06;;;17.83;88.34
58243;BME280;50118;53.232;8.252;2022-08-01T08:44:35;101653.47;;;18.36;85.88
58243;BME280;50118;53.232;8.252;2022-08-01T08:47:02;101661.78;;;18.09;83.62
58243;BME280;50118;53.232;8.252;2022-08-01T08:49:42;101657.94;;;18.04;84.06
58243;BME280;50118;53.232;8.252;2022-08-01T08:52:38;101666.38;;;17.68;84.54
58243;BME280;50118;53.232;8.252;2022-08-01T08:55:05;101658.97;;;17.70;87.13
58243;BME280;50118;53.232;8.252;2022-08-01T08:57:31;101675.28;;;18.01;84.83
58243;BME280;50118;53.232;8.252;2022-08-01T08:59:57;101666.19;;;17.94;81.74
58243;BME280;50118;53.232;8.252;2022-08-01T09:02:23;101668.72;;;17.87;83.56
58243;BME280;50118;53.232;8.252;2022-08-01T09:04:49;101659.78;;;18.03;83.82
58243;BME280;50118;53.232;8.252;2022-08-01T09:07:27;101659.78;;;17.70;84.62
58243;BME280;50118;53.232;8.252;2022-08-01T09:10:44;101656.88;;;18.13;83.09
58243;BME280;50118;53.232;8.252;2022-08-01T09:13:13;101668.38;;;17.74;83.28
58243;BME280;50118;53.232;8.252;2022-08-01T09:15:50;101673.44;;;17.94;83.81
58243;BME280;50118;53.232;8.252;2022-08-01T09:18:29;101669.03;;;18.09;79.95
58243;BME280;50118;53.232;8.252;2022-08-01T09:21:18;101675.66;;;18.46;77.64
58243;BME280;50118;53.232;8.252;2022-08-01T09:23:51;101671.91;;;18.55;75.70
58243;BME280;50118;53.232;8.252;2022-08-01T09:26:35;101685.69;;;18.69;76.17
58243;BME280;50118;53.232;8.252;2022-08-01T09:29:08;101677.47;;;18.93;76.48
58243;BME280;50118;53.232;8.252;2022-08-01T09:31:43;101692.78;;;18.70;72.58
58243;BME280;50118;53.232;8.252;2022-08-01T09:34:09;101701.06;;;18.12;76.09
58243;BME280;50118;53.232;8.252;2022-08-01T09:36:52;101703.34;;;18.32;77.72
58243;BME280;50118;53.232;8.252;2022-08-01T09:39:33;101698.75;;;18.40;78.43
58243;BME280;50118;53.232;8.252;2022-08-01T09:42:01;101701.25;;;18.58;78.55
58243;BME280;50118;53.232;8.252;2022-08-01T09:44:41;101699.97;;;18.77;79.83
58243;BME280;50118;53.232;8.252;2022-08-01T09:47:06;101707.06;;;18.78;78.57
58243;BME280;50118;53.232;8.252;2022-08-01T09:49:35;101703.34;;;19.19;78.01
58243;BME280;50118;53.232;8.252;2022-08-01T09:52:14;101716.06;;;19.33;74.80
58243;BME280;50118;53.232;8.252;2022-08-01T09:54:40;101717.44;;;18.98;76.98
58243;BME280;50118;53.232;8.252;2022-08-01T09:57:14;101712.78;;;19.15;72.44
58243;BME280;50118;53.232;8.252;2022-08-01T09:59:43;101726.28;;;19.15;72.68
58243;BME280;50118;53.232;8.252;2022-08-01T10:02:13;101715.81;;;18.80;72.68
58243;BME280;50118;53.232;8.252;2022-08-01T10:04:56;101717.78;;;18.55;74.36
58243;BME280;50118;53.232;8.252;2022-08-01T10:07:22;101707.81;;;19.03;74.76
58243;BME280;50118;53.232;8.252;2022-08-01T10:09:48;101724.16;;;18.62;76.96
58243;BME280;50118;53.232;8.252;2022-08-01T10:12:16;101709.09;;;19.16;74.88
58243;BME280;50118;53.232;8.252;2022-08-01T10:14:48;101711.84;;;19.08;73.46
58243;BME280;50118;53.232;8.252;2022-08-01T10:17:21;101711.47;;;19.34;73.18
58243;BME280;50118;53.232;8.252;2022-08-01T10:19:49;101707.53;;;19.45;69.38
58243;BME280;50118;53.232;8.252;2022-08-01T10:22:16;101702.00;;;19.15;69.42
58243;BME280;50118;53.232;8.252;2022-08-01T10:24:44;101694.56;;;18.77;68.76
58243;BME280;50118;53.232;8.252;2022-08-01T10:27:11;101699.00;;;19.33;70.64
58243;BME280;50118;53.232;8.252;2022-08-01T10:29:57;101702.56;;;19.33;67.42
58243;BME280;50118;53.232;8.252;2022-08-01T10:32:29;101708.50;;;18.97;70.80
58243;BME280;50118;53.232;8.252;2022-08-01T10:34:55;101704.53;;;19.39;70.38
58243;BME280;50118;53.232;8.252;2022-08-01T10:37:21;101704.72;;;18.83;70.39
58243;BME280;50118;53.232;8.252;2022-08-01T10:39:46;101712.09;;;19.21;67.13
58243;BME280;50118;53.232;8.252;2022-08-01T10:42:12;101712.94;;;19.21;66.43
58243;BME280;50118;53.232;8.252;2022-08-01T10:44:38;101702.72;;;19.55;66.67
58243;BME280;50118;53.232;8.252;2022-08-01T10:47:09;101703.53;;;20.17;62.62
58243;BME280;50118;53.232;8.252;2022-08-01T10:49:41;101702.84;;;19.85;65.34
58243;BME280;50118;53.232;8.252;2022-08-01T10:52:14;101706.81;;;19.51;66.42
58243;BME280;50118;53.232;8.252;2022-08-01T10:54:40;101716.75;;;19.27;67.85
58243;BME280;50118;53.232;8.252;2022-08-01T10:57:06;101713.19;;;19.35;66.95
58243;BME280;50118;53.232;8.252;2022-08-01T10:59:32;101719.66;;;18.94;69.41
58243;BME280;50118;53.232;8.252;2022-08-01T11:02:02;101718.19;;;19.15;70.10
58243;BME280;50118;53.232;8.252;2022-08-01T11:10:16;101711.13;;;20.66;62.87
58243;BME280;50118;53.232;8.252;2022-08-01T11:12:44;101721.69;;;19.93;64.50
58243;BME280;50118;53.232;8.252;2022-08-01T11:17:35;101722.47;;;20.46;62.02
58243;BME280;50118;53.232;8.252;2022-08-01T11:20:11;101718.16;;;20.07;62.85
58243;BME280;50118;53.232;8.252;2022-08-01T11:30:43;101724.50;;;19.30;64.33
58243;BME280;50118;53.232;8.252;2022-08-01T11:33:09;101727.94;;;19.24;66.45
58243;BME280;50118;53.232;8.252;2022-08-01T11:38:24;101734.53;;;18.82;70.06
58243;BME280;50118;53.232;8.252;2022-08-01T11:44:00;101728.00;;;19.39;66.17
58243;BME280;50118;53.232;8.252;2022-08-01T11:47:04;101726.38;;;19.30;66.02
58243;BME280;50118;53.232;8.252;2022-08-01T11:54:32;101736.97;;;19.39;64.56
58243;BME280;50118;53.232;8.252;2022-08-01T11:57:00;101739.97;;;19.45;66.87
58243;BME280;50118;53.232;8.252;2022-08-01T11:59:26;101732.41;;;19.63;64.89
58243;BME280;50118;53.232;8.252;2022-08-01T12:01:52;101744.59;;;19.04;67.72
58243;BME280;50118;53.232;8.252;2022-08-01T12:04:24;101744.13;;;18.28;70.79
58243;BME280;50118;53.232;8.252;2022-08-01T12:07:20;101739.13;;;17.92;73.73
58243;BME280;50118;53.232;8.252;2022-08-01T12:09:56;101744.03;;;17.89;74.00
58243;BME280;50118;53.232;8.252;2022-08-01T12:12:22;101733.72;;;18.25;72.88
58243;BME280;50118;53.232;8.252;2022-08-01T12:18:10;101738.03;;;18.51;72.15
58243;BME280;50118;53.232;8.252;2022-08-01T12:20:43;101740.94;;;18.81;70.49
58243;BME280;50118;53.232;8.252;2022-08-01T12:23:16;101738.22;;;18.97;68.83
58243;BME280;50118;53.232;8.252;2022-08-01T12:25:42;101740.31;;;19.41;68.72
58243;BME280;50118;53.232;8.252;2022-08-01T12:28:25;101743.41;;;19.30;68.45
58243;BME280;50118;53.232;8.252;2022-08-01T12:30:51;101746.75;;;18.70;70.35
58243;BME280;50118;53.232;8.252;2022-08-01T12:33:19;101746.66;;;19.26;72.77
58243;BME280;50118;53.232;8.252;2022-08-01T12:35:45;101754.56;;;18.48;68.55
58243;BME280;50118;53.232;8.252;2022-08-01T12:38:20;101747.13;;;18.50;70.06
58243;BME280;50118;53.232;8.252;2022-08-01T12:40:47;101744.94;;;18.45;70.34
58243;BME280;50118;53.232;8.252;2022-08-01T12:43:18;101752.97;;;17.89;71.14
58243;BME280;50118;53.232;8.252;2022-08-01T12:45:49;101747.47;;;18.47;70.34
58243;BME280;50118;53.232;8.252;2022-08-01T12:48:17;101744.59;;;19.04;67.35
58243;BME280;50118;53.232;8.252;2022-08-01T12:50:53;101739.97;;;18.74;69.06
58243;BME280;50118;53.232;8.252;2022-08-01T12:53:34;101749.16;;;18.48;69.13
58243;BME280;50118;53.232;8.252;2022-08-01T13:02:32;101735.50;;;18.58;68.64
58243;BME280;50118;53.232;8.252;2022-08-01T13:04:58;101733.78;;;18.65;68.24
58243;BME280;50118;53.232;8.252;2022-08-01T13:07:45;101742.63;;;18.82;70.67
58243;BME280;50118;53.232;8.252;2022-08-01T13:10:12;101739.16;;;18.65;70.96
58243;BME280;50118;53.232;8.252;2022-08-01T13:12:40;101748.38;;;18.87;65.54
58243;BME280;50118;53.232;8.252;2022-08-01T13:18:32;101753.16;;;18.60;69.21
58243;BME280;50118;53.232;8.252;2022-08-01T13:31:36;101752.78;;;18.07;68.43
58243;BME280;50118;53.232;8.252;2022-08-01T13:34:02;101751.06;;;18.31;68.78
58243;BME280;50118;53.232;8.252;2022-08-01T13:39:50;101741.06;;;18.56;68.52
58243;BME280;50118;53.232;8.252;2022-08-01T13:42:15;101750.19;;;18.39;68.40
58243;BME280;50118;53.232;8.252;2022-08-01T13:44:42;101749.25;;;18.15;67.72
58243;BME280;50118;53.232;8.252;2022-08-01T13:47:10;101752.59;;;17.76;67.28
58243;BME280;50118;53.232;8.252;2022-08-01T13:49:36;101742.47;;;18.27;66.83
58243;BME280;50118;53.232;8.252;2022-08-01T13:52:06;101737.38;;;18.41;67.79
58243;BME280;50118;53.232;8.252;2022-08-01T13:54:32;101739.09;;;19.21;66.19
58243;BME280;50118;53.232;8.252;2022-08-01T13:57:04;101749.91;;;18.81;65.06
58243;BME280;50118;53.232;8.252;2022-08-01T13:59:30;101746.38;;;18.73;66.24
58243;BME280;50118;53.232;8.252;2022-08-01T14:01:55;101740.91;;;18.97;67.46
58243;BME280;50118;53.232;8.252;2022-08-01T14:04:21;101736.72;;;19.26;64.50
58243;BME280;50118;53.232;8.252;2022-08-01T14:06:47;101735.34;;;18.99;66.13
58243;BME280;50118;53.232;8.252;2022-08-01T14:09:12;101739.69;;;18.52;68.15
58243;BME280;50118;53.232;8.252;2022-08-01T14:11:47;101738.72;;;18.45;66.34
58243;BME280;50118;53.232;8.252;2022-08-01T14:14:12;101741.41;;;18.53;67.04
58243;BME280;50118;53.232;8.252;2022-08-01T14:16:38;101739.34;;;18.55;67.40
58243;BME280;50118;53.232;8.252;2022-08-01T14:19:04;101740.31;;;18.71;67.92
58243;BME280;50118;53.232;8.252;2022-08-01T14:21:30;101737.72;;;18.94;63.70
58243;BME280;50118;53.232;8.252;2022-08-01T14:23:56;101741.75;;;19.29;64.03
58243;BME280;50118;53.232;8.252;2022-08-01T14:26:22;101739.34;;;19.34;61.56
58243;BME280;50118;53.232;8.252;2022-08-01T14:28:47;101734.00;;;19.72;62.71
58243;BME280;50118;53.232;8.252;2022-08-01T14:31:13;101736.22;;;19.69;60.11
58243;BME280;50118;53.232;8.252;2022-08-01T14:33:38;101732.28;;;20.32;58.56
58243;BME280;50118;53.232;8.252;2022-08-01T14:36:04;101736.19;;;20.15;58.52
58243;BME280;50118;53.232;8.252;2022-08-01T14:38:29;101735.19;;;19.70;58.62
58243;BME280;50118;53.232;8.252;2022-08-01T14:40:54;101735.16;;;20.16;59.16
58243;BME280;50118;53.232;8.252;2022-08-01T14:43:20;101732.72;;;20.06;58.08
58243;BME280;50118;53.232;8.252;2022-08-01T14:45:46;101736.97;;;19.39;60.07
58243;BME280;50118;53.232;8.252;2022-08-01T14:48:16;101732.75;;;19.14;61.17
58243;BME280;50118;53.232;8.252;2022-08-01T14:50:42;101734.19;;;19.48;60.74
58243;BME280;50118;53.232;8.252;2022-08-01T14:53:08;101731.03;;;19.13;60.99
58243;BME280;50118;53.232;8.252;2022-08-01T14:55:33;101742.53;;;19.07;61.29
58243;BME280;50118;53.232;8.252;2022-08-01T14:57:58;101738.41;;;18.88;60.54
58243;BME280;50118;53.232;8.252;2022-08-01T15:00:24;101734.88;;;18.79;61.41
58243;BME280;50118;53.232;8.252;2022-08-01T15:02:49;101742.03;;;18.63;62.63
58243;BME280;50118;53.232;8.252;2022-08-01T15:05:15;101736.38;;;18.90;61.33
58243;BME280;50118;53.232;8.252;2022-08-01T15:07:40;101739.25;;;18.88;62.82
58243;BME280;50118;53.232;8.252;2022-08-01T15:10:07;101737.38;;;18.97;65.08
58243;BME280;50118;53.232;8.252;2022-08-01T15:12:43;101735.91;;;18.86;64.87
58243;BME280;50118;53.232;8.252;2022-08-01T15:15:09;101741.41;;;19.01;66.69
58243;BME280;50118;53.232;8.252;2022-08-01T15:17:35;101734.78;;;19.35;62.17
58243;BME280;50118;53.232;8.252;2022-08-01T15:20:06;101745.13;;;19.31;62.02
58243;BME280;50118;53.232;8.252;2022-08-01T15:22:32;101748.50;;;19.25;60.72
58243;BME280;50118;53.232;8.252;2022-08-01T15:24:59;101752.38;;;18.99;60.28
58243;BME280;50118;53.232;8.252;2022-08-01T15:27:26;101752.06;;;18.94;61.83
58243;BME280;50118;53.232;8.252;2022-08-01T15:29:54;101750.44;;;18.69;61.04
58243;BME280;50118;53.232;8.252;2022-08-01T15:32:19;101758.25;;;18.47;64.27
58243;BME280;50118;53.232;8.252;2022-08-01T15:34:45;101747.53;;;18.22;63.71